Oswego, Oregon
Current Conditions -  °F | °C
As of 6:53 PM on Tuesday 21 Oct 2014 (Local Time) from KUAO Reporting Station
Overcast Overcast  
Wind Chill: 59°   Ceiling: 6000
Heat Index: 59°   Visibility: 10mi
Dew Point: 48°   Wind: 6mph
Humidity: 67%   Direction: 150°SSE
Pressure: 29.92"   Gusts: NA
Location:  45.4082°N, 122.683°W
Report Text: KUAO 220153Z AUTO 15005KT 10SM OVC060 15/09 A2992 RMK AO2 SLP132 T01500089
Loading
Personal Weather Stations






























Interactive Weather Map
Tropical Storm Tracking
New forecast layout! Learn more

10-Day Weather Forecast

Advertisements
Track Severe Weather on mobile